sensor_id;sensor_type;location;lat;lon;timestamp;temperature;humidity
51839;DHT22;37886;53.174;6.368;2023-09-19T00:00:38;14.10;99.90
51839;DHT22;37886;53.174;6.368;2023-09-19T00:03:06;14.00;99.90
51839;DHT22;37886;53.174;6.368;2023-09-19T00:05:35;14.00;99.90
51839;DHT22;37886;53.174;6.368;2023-09-19T00:08:01;14.00;99.90
51839;DHT22;37886;53.174;6.368;2023-09-19T00:10:31;13.90;99.90
51839;DHT22;37886;53.174;6.368;2023-09-19T00:12:58;14.00;99.90
51839;DHT22;37886;53.174;6.368;2023-09-19T00:15:31;14.00;99.90
51839;DHT22;37886;53.174;6.368;2023-09-19T00:18:01;14.00;99.90
51839;DHT22;37886;53.174;6.368;2023-09-19T00:20:26;14.00;99.90
51839;DHT22;37886;53.174;6.368;2023-09-19T00:22:55;14.00;99.90
51839;DHT22;37886;53.174;6.368;2023-09-19T00:25:21;13.90;99.90
51839;DHT22;37886;53.174;6.368;2023-09-19T00:27:49;14.00;99.90
51839;DHT22;37886;53.174;6.368;2023-09-19T00:30:17;13.90;99.90
51839;DHT22;37886;53.174;6.368;2023-09-19T00:32:50;13.90;99.90
51839;DHT22;37886;53.174;6.368;2023-09-19T00:35:18;14.00;99.90
51839;DHT22;37886;53.174;6.368;2023-09-19T00:37:53;14.00;99.90
51839;DHT22;37886;53.174;6.368;2023-09-19T00:40:19;14.00;99.90
51839;DHT22;37886;53.174;6.368;2023-09-19T00:42:47;14.00;99.90
51839;DHT22;37886;53.174;6.368;2023-09-19T00:45:14;14.10;99.90
51839;DHT22;37886;53.174;6.368;2023-09-19T00:47:46;14.10;99.90
51839;DHT22;37886;53.174;6.368;2023-09-19T00:50:20;14.00;99.90
51839;DHT22;37886;53.174;6.368;2023-09-19T00:52:49;13.90;99.90
51839;DHT22;37886;53.174;6.368;2023-09-19T00:55:16;13.90;99.90
51839;DHT22;37886;53.174;6.368;2023-09-19T00:57:45;13.80;99.90
51839;DHT22;37886;53.174;6.368;2023-09-19T01:00:12;13.70;99.90
51839;DHT22;37886;53.174;6.368;2023-09-19T01:02:42;13.70;99.90
51839;DHT22;37886;53.174;6.368;2023-09-19T01:05:11;13.60;99.90
51839;DHT22;37886;53.174;6.368;2023-09-19T01:07:38;13.60;99.90
51839;DHT22;37886;53.174;6.368;2023-09-19T01:10:08;13.60;99.90
51839;DHT22;37886;53.174;6.368;2023-09-19T01:13:08;13.60;99.90
51839;DHT22;37886;53.174;6.368;2023-09-19T01:15:55;13.60;99.90
51839;DHT22;37886;53.174;6.368;2023-09-19T01:32:05;13.40;99.90
51839;DHT22;37886;53.174;6.368;2023-09-19T01:34:56;13.40;99.90
51839;DHT22;37886;53.174;6.368;2023-09-19T01:37:24;13.30;99.90
51839;DHT22;37886;53.174;6.368;2023-09-19T01:42:57;13.30;99.90
51839;DHT22;37886;53.174;6.368;2023-09-19T01:51:07;13.10;99.90
51839;DHT22;37886;53.174;6.368;2023-09-19T01:54:08;13.20;99.90
51839;DHT22;37886;53.174;6.368;2023-09-19T01:56:45;13.10;99.90
51839;DHT22;37886;53.174;6.368;2023-09-19T01:59:16;13.30;99.90
51839;DHT22;37886;53.174;6.368;2023-09-19T02:01:46;13.20;99.90
51839;DHT22;37886;53.174;6.368;2023-09-19T02:04:11;13.20;99.90
51839;DHT22;37886;53.174;6.368;2023-09-19T02:06:41;13.10;99.90
51839;DHT22;37886;53.174;6.368;2023-09-19T02:09:06;13.20;99.90
51839;DHT22;37886;53.174;6.368;2023-09-19T02:11:32;13.20;99.90
51839;DHT22;37886;53.174;6.368;2023-09-19T02:13:58;13.20;99.90
51839;DHT22;37886;53.174;6.368;2023-09-19T02:16:25;13.10;99.90
51839;DHT22;37886;53.174;6.368;2023-09-19T02:18:50;13.10;99.90
51839;DHT22;37886;53.174;6.368;2023-09-19T02:21:17;13.00;99.90
51839;DHT22;37886;53.174;6.368;2023-09-19T02:23:44;13.10;99.90
51839;DHT22;37886;53.174;6.368;2023-09-19T02:26:11;13.10;99.90
51839;DHT22;37886;53.174;6.368;2023-09-19T02:28:37;13.00;99.90
51839;DHT22;37886;53.174;6.368;2023-09-19T02:31:03;13.10;99.90
51839;DHT22;37886;53.174;6.368;2023-09-19T02:33:31;13.00;99.90
51839;DHT22;37886;53.174;6.368;2023-09-19T02:35:58;13.00;99.90
51839;DHT22;37886;53.174;6.368;2023-09-19T02:38:28;13.00;99.90
51839;DHT22;37886;53.174;6.368;2023-09-19T02:40:54;13.00;99.90
51839;DHT22;37886;53.174;6.368;2023-09-19T02:43:21;13.00;99.90
51839;DHT22;37886;53.174;6.368;2023-09-19T02:45:47;13.00;99.90
51839;DHT22;37886;53.174;6.368;2023-09-19T02:48:15;12.90;99.90
51839;DHT22;37886;53.174;6.368;2023-09-19T02:50:41;13.00;99.90
51839;DHT22;37886;53.174;6.368;2023-09-19T02:53:07;12.90;99.90
51839;DHT22;37886;53.174;6.368;2023-09-19T02:55:33;12.90;99.90
51839;DHT22;37886;53.174;6.368;2023-09-19T02:57:59;12.90;99.90
51839;DHT22;37886;53.174;6.368;2023-09-19T03:00:27;12.90;99.90
51839;DHT22;37886;53.174;6.368;2023-09-19T03:02:54;12.90;99.90
51839;DHT22;37886;53.174;6.368;2023-09-19T03:05:21;12.90;99.90
51839;DHT22;37886;53.174;6.368;2023-09-19T03:07:47;12.80;99.90
51839;DHT22;37886;53.174;6.368;2023-09-19T03:10:20;12.80;99.90
51839;DHT22;37886;53.174;6.368;2023-09-19T03:12:49;12.70;99.90
51839;DHT22;37886;53.174;6.368;2023-09-19T03:15:15;12.70;99.90
51839;DHT22;37886;53.174;6.368;2023-09-19T03:17:46;12.60;99.90
51839;DHT22;37886;53.174;6.368;2023-09-19T03:20:13;12.60;99.90
51839;DHT22;37886;53.174;6.368;2023-09-19T03:22:40;12.60;99.90
51839;DHT22;37886;53.174;6.368;2023-09-19T03:25:07;12.50;99.90
51839;DHT22;37886;53.174;6.368;2023-09-19T03:27:34;12.50;99.90
51839;DHT22;37886;53.174;6.368;2023-09-19T03:30:00;12.50;99.90
51839;DHT22;37886;53.174;6.368;2023-09-19T03:32:26;12.60;99.90
51839;DHT22;37886;53.174;6.368;2023-09-19T03:34:52;12.60;99.90
51839;DHT22;37886;53.174;6.368;2023-09-19T03:37:17;12.60;99.90
51839;DHT22;37886;53.174;6.368;2023-09-19T03:39:43;12.50;99.90
51839;DHT22;37886;53.174;6.368;2023-09-19T03:42:09;12.50;99.90
51839;DHT22;37886;53.174;6.368;2023-09-19T03:44:35;12.50;99.90
51839;DHT22;37886;53.174;6.368;2023-09-19T03:47:01;12.40;99.90
51839;DHT22;37886;53.174;6.368;2023-09-19T03:49:26;12.40;99.90
51839;DHT22;37886;53.174;6.368;2023-09-19T03:51:52;12.40;99.90
51839;DHT22;37886;53.174;6.368;2023-09-19T03:54:18;12.40;99.90
51839;DHT22;37886;53.174;6.368;2023-09-19T03:56:45;12.50;99.90
51839;DHT22;37886;53.174;6.368;2023-09-19T03:59:11;12.60;99.90
51839;DHT22;37886;53.174;6.368;2023-09-19T04:01:38;12.60;99.90
51839;DHT22;37886;53.174;6.368;2023-09-19T04:04:03;12.70;99.90
51839;DHT22;37886;53.174;6.368;2023-09-19T04:06:36;12.70;99.90
51839;DHT22;37886;53.174;6.368;2023-09-19T04:09:03;12.70;99.90
51839;DHT22;37886;53.174;6.368;2023-09-19T04:11:32;12.80;99.90
51839;DHT22;37886;53.174;6.368;2023-09-19T04:13:58;12.80;99.90
51839;DHT22;37886;53.174;6.368;2023-09-19T04:16:24;12.70;99.90
51839;DHT22;37886;53.174;6.368;2023-09-19T04:18:50;12.70;99.90
51839;DHT22;37886;53.174;6.368;2023-09-19T04:21:16;12.70;99.90
51839;DHT22;37886;53.174;6.368;2023-09-19T04:23:42;12.70;99.90
51839;DHT22;37886;53.174;6.368;2023-09-19T04:26:08;12.80;99.90
51839;DHT22;37886;53.174;6.368;2023-09-19T04:28:34;12.80;99.90
51839;DHT22;37886;53.174;6.368;2023-09-19T04:31:01;12.80;99.90
51839;DHT22;37886;53.174;6.368;2023-09-19T04:33:27;12.90;99.90
51839;DHT22;37886;53.174;6.368;2023-09-19T04:35:53;12.90;99.90
51839;DHT22;37886;53.174;6.368;2023-09-19T04:38:19;12.90;99.90
51839;DHT22;37886;53.174;6.368;2023-09-19T04:40:45;12.90;99.90
51839;DHT22;37886;53.174;6.368;2023-09-19T04:43:11;13.00;99.90
51839;DHT22;37886;53.174;6.368;2023-09-19T04:45:38;13.00;99.90
51839;DHT22;37886;53.174;6.368;2023-09-19T04:48:05;13.00;99.90
51839;DHT22;37886;53.174;6.368;2023-09-19T04:50:32;13.00;99.90
51839;DHT22;37886;53.174;6.368;2023-09-19T04:53:00;13.00;99.90
51839;DHT22;37886;53.174;6.368;2023-09-19T04:55:26;13.00;99.90
51839;DHT22;37886;53.174;6.368;2023-09-19T04:57:53;13.10;99.90
51839;DHT22;37886;53.174;6.368;2023-09-19T05:00:23;13.10;99.90
51839;DHT22;37886;53.174;6.368;2023-09-19T05:02:56;13.20;99.90
51839;DHT22;37886;53.174;6.368;2023-09-19T05:05:22;13.20;99.90
51839;DHT22;37886;53.174;6.368;2023-09-19T05:07:49;13.30;99.90
51839;DHT22;37886;53.174;6.368;2023-09-19T05:10:16;13.30;99.90
51839;DHT22;37886;53.174;6.368;2023-09-19T05:12:44;13.30;99.90
51839;DHT22;37886;53.174;6.368;2023-09-19T05:15:12;13.30;99.90
51839;DHT22;37886;53.174;6.368;2023-09-19T05:17:38;13.40;99.90
51839;DHT22;37886;53.174;6.368;2023-09-19T05:20:05;13.40;99.90
51839;DHT22;37886;53.174;6.368;2023-09-19T05:22:43;13.40;99.90
51839;DHT22;37886;53.174;6.368;2023-09-19T05:25:12;13.50;99.90
51839;DHT22;37886;53.174;6.368;2023-09-19T05:27:42;13.50;99.90
51839;DHT22;37886;53.174;6.368;2023-09-19T05:30:08;13.50;99.90
51839;DHT22;37886;53.174;6.368;2023-09-19T05:32:34;13.50;99.90
51839;DHT22;37886;53.174;6.368;2023-09-19T05:35:00;13.50;99.90
51839;DHT22;37886;53.174;6.368;2023-09-19T05:37:26;13.50;99.90
51839;DHT22;37886;53.174;6.368;2023-09-19T05:39:52;13.60;99.90
51839;DHT22;37886;53.174;6.368;2023-09-19T05:42:19;13.60;99.90
51839;DHT22;37886;53.174;6.368;2023-09-19T05:44:45;13.60;99.90
51839;DHT22;37886;53.174;6.368;2023-09-19T05:47:10;13.60;99.90
51839;DHT22;37886;53.174;6.368;2023-09-19T05:49:36;13.70;99.90
51839;DHT22;37886;53.174;6.368;2023-09-19T05:52:05;13.70;99.90
51839;DHT22;37886;53.174;6.368;2023-09-19T05:54:32;13.70;99.90
51839;DHT22;37886;53.174;6.368;2023-09-19T05:56:58;13.70;99.90
51839;DHT22;37886;53.174;6.368;2023-09-19T05:59:24;13.70;99.90
51839;DHT22;37886;53.174;6.368;2023-09-19T06:01:49;13.80;99.90
51839;DHT22;37886;53.174;6.368;2023-09-19T06:04:17;13.80;99.90
51839;DHT22;37886;53.174;6.368;2023-09-19T06:06:45;13.80;99.90
51839;DHT22;37886;53.174;6.368;2023-09-19T06:09:10;13.80;99.90
51839;DHT22;37886;53.174;6.368;2023-09-19T06:11:36;13.90;99.90
51839;DHT22;37886;53.174;6.368;2023-09-19T06:14:03;14.00;99.90
51839;DHT22;37886;53.174;6.368;2023-09-19T06:16:29;14.00;99.90
51839;DHT22;37886;53.174;6.368;2023-09-19T06:18:55;14.10;99.90
51839;DHT22;37886;53.174;6.368;2023-09-19T06:21:22;14.00;99.90
51839;DHT22;37886;53.174;6.368;2023-09-19T06:23:48;14.10;99.90
51839;DHT22;37886;53.174;6.368;2023-09-19T06:26:14;14.10;99.90
51839;DHT22;37886;53.174;6.368;2023-09-19T06:28:40;14.10;99.90
51839;DHT22;37886;53.174;6.368;2023-09-19T06:31:06;14.10;99.90
51839;DHT22;37886;53.174;6.368;2023-09-19T06:33:38;14.20;99.90
51839;DHT22;37886;53.174;6.368;2023-09-19T06:36:08;14.20;99.90
51839;DHT22;37886;53.174;6.368;2023-09-19T06:38:34;14.30;99.90
51839;DHT22;37886;53.174;6.368;2023-09-19T06:41:02;14.30;99.90
51839;DHT22;37886;53.174;6.368;2023-09-19T06:43:32;14.30;99.90
51839;DHT22;37886;53.174;6.368;2023-09-19T06:45:59;14.40;99.90
51839;DHT22;37886;53.174;6.368;2023-09-19T06:48:26;14.50;99.90
51839;DHT22;37886;53.174;6.368;2023-09-19T06:50:58;14.60;99.90
51839;DHT22;37886;53.174;6.368;2023-09-19T06:53:25;14.60;99.90
51839;DHT22;37886;53.174;6.368;2023-09-19T06:55:51;14.60;99.90
51839;DHT22;37886;53.174;6.368;2023-09-19T06:58:17;14.70;99.90
51839;DHT22;37886;53.174;6.368;2023-09-19T07:00:43;14.80;99.90
51839;DHT22;37886;53.174;6.368;2023-09-19T07:03:11;14.80;99.90
51839;DHT22;37886;53.174;6.368;2023-09-19T07:05:39;14.80;99.90
51839;DHT22;37886;53.174;6.368;2023-09-19T07:08:06;14.90;99.90
51839;DHT22;37886;53.174;6.368;2023-09-19T07:10:33;15.00;99.90
51839;DHT22;37886;53.174;6.368;2023-09-19T07:15:25;15.10;99.90
51839;DHT22;37886;53.174;6.368;2023-09-19T07:17:52;15.20;99.90
51839;DHT22;37886;53.174;6.368;2023-09-19T07:20:19;15.30;99.90
51839;DHT22;37886;53.174;6.368;2023-09-19T07:22:45;15.40;99.90
51839;DHT22;37886;53.174;6.368;2023-09-19T07:25:12;15.50;99.90
51839;DHT22;37886;53.174;6.368;2023-09-19T07:27:40;15.50;99.90
51839;DHT22;37886;53.174;6.368;2023-09-19T07:30:07;15.50;99.90
51839;DHT22;37886;53.174;6.368;2023-09-19T07:32:33;15.40;99.90
51839;DHT22;37886;53.174;6.368;2023-09-19T07:35:02;15.40;99.90
51839;DHT22;37886;53.174;6.368;2023-09-19T07:37:30;15.40;99.90
51839;DHT22;37886;53.174;6.368;2023-09-19T07:39:59;15.40;99.90
51839;DHT22;37886;53.174;6.368;2023-09-19T07:42:26;15.40;99.90
51839;DHT22;37886;53.174;6.368;2023-09-19T07:44:52;15.40;99.90
51839;DHT22;37886;53.174;6.368;2023-09-19T07:47:20;15.60;99.90
51839;DHT22;37886;53.174;6.368;2023-09-19T07:49:49;15.60;99.90
51839;DHT22;37886;53.174;6.368;2023-09-19T07:52:15;15.70;99.90
51839;DHT22;37886;53.174;6.368;2023-09-19T07:54:41;15.70;99.90
51839;DHT22;37886;53.174;6.368;2023-09-19T07:57:10;15.60;99.90
51839;DHT22;37886;53.174;6.368;2023-09-19T07:59:37;15.60;99.90
51839;DHT22;37886;53.174;6.368;2023-09-19T08:02:04;15.70;99.90
51839;DHT22;37886;53.174;6.368;2023-09-19T08:04:30;15.80;99.90
51839;DHT22;37886;53.174;6.368;2023-09-19T08:06:58;15.90;99.90
51839;DHT22;37886;53.174;6.368;2023-09-19T08:09:26;15.90;99.90
51839;DHT22;37886;53.174;6.368;2023-09-19T08:11:53;16.00;99.90
51839;DHT22;37886;53.174;6.368;2023-09-19T08:14:18;16.10;99.90
51839;DHT22;37886;53.174;6.368;2023-09-19T08:16:44;16.20;99.90
51839;DHT22;37886;53.174;6.368;2023-09-19T08:19:10;16.10;99.90
51839;DHT22;37886;53.174;6.368;2023-09-19T08:21:36;16.20;99.90
51839;DHT22;37886;53.174;6.368;2023-09-19T08:24:02;16.40;99.90
51839;DHT22;37886;53.174;6.368;2023-09-19T08:26:29;16.60;99.90
51839;DHT22;37886;53.174;6.368;2023-09-19T08:28:56;16.50;99.90
51839;DHT22;37886;53.174;6.368;2023-09-19T08:31:21;16.30;99.90
51839;DHT22;37886;53.174;6.368;2023-09-19T08:33:48;16.30;99.90
51839;DHT22;37886;53.174;6.368;2023-09-19T08:36:15;16.20;99.90
51839;DHT22;37886;53.174;6.368;2023-09-19T08:38:41;16.20;99.90
51839;DHT22;37886;53.174;6.368;2023-09-19T08:41:08;16.20;99.90
51839;DHT22;37886;53.174;6.368;2023-09-19T08:43:35;16.20;99.90
51839;DHT22;37886;53.174;6.368;2023-09-19T08:46:11;16.40;99.90
51839;DHT22;37886;53.174;6.368;2023-09-19T08:51:30;16.60;99.90
51839;DHT22;37886;53.174;6.368;2023-09-19T08:54:06;16.70;99.90
51839;DHT22;37886;53.174;6.368;2023-09-19T08:56:33;16.60;99.90
51839;DHT22;37886;53.174;6.368;2023-09-19T08:59:06;16.60;99.90
51839;DHT22;37886;53.174;6.368;2023-09-19T09:01:35;16.70;99.90
51839;DHT22;37886;53.174;6.368;2023-09-19T09:04:02;16.70;99.90
51839;DHT22;37886;53.174;6.368;2023-09-19T09:06:29;16.80;99.90
51839;DHT22;37886;53.174;6.368;2023-09-19T09:08:55;17.00;99.90
51839;DHT22;37886;53.174;6.368;2023-09-19T09:11:22;17.00;99.90
51839;DHT22;37886;53.174;6.368;2023-09-19T09:13:50;17.00;99.90
51839;DHT22;37886;53.174;6.368;2023-09-19T09:16:16;17.00;99.90
51839;DHT22;37886;53.174;6.368;2023-09-19T09:18:49;17.20;99.90
51839;DHT22;37886;53.174;6.368;2023-09-19T09:21:24;17.30;99.90
51839;DHT22;37886;53.174;6.368;2023-09-19T09:23:50;17.20;99.90
51839;DHT22;37886;53.174;6.368;2023-09-19T09:26:25;17.20;99.90
51839;DHT22;37886;53.174;6.368;2023-09-19T09:29:03;17.00;99.90
51839;DHT22;37886;53.174;6.368;2023-09-19T09:31:29;17.20;99.90
51839;DHT22;37886;53.174;6.368;2023-09-19T09:33:56;17.30;99.90
51839;DHT22;37886;53.174;6.368;2023-09-19T09:36:39;17.30;99.90
51839;DHT22;37886;53.174;6.368;2023-09-19T09:39:07;17.40;99.90
51839;DHT22;37886;53.174;6.368;2023-09-19T09:41:50;17.40;99.90
51839;DHT22;37886;53.174;6.368;2023-09-19T09:44:17;17.80;99.90
51839;DHT22;37886;53.174;6.368;2023-09-19T09:46:45;17.80;99.90
51839;DHT22;37886;53.174;6.368;2023-09-19T09:49:25;17.80;99.90
51839;DHT22;37886;53.174;6.368;2023-09-19T09:52:04;17.80;99.90
51839;DHT22;37886;53.174;6.368;2023-09-19T09:54:35;18.00;99.90
51839;DHT22;37886;53.174;6.368;2023-09-19T09:57:09;18.00;99.90
51839;DHT22;37886;53.174;6.368;2023-09-19T09:59:50;17.90;99.90
51839;DHT22;37886;53.174;6.368;2023-09-19T10:02:21;18.00;99.90
51839;DHT22;37886;53.174;6.368;2023-09-19T10:04:51;18.00;99.90
51839;DHT22;37886;53.174;6.368;2023-09-19T10:07:28;17.90;99.90
51839;DHT22;37886;53.174;6.368;2023-09-19T10:10:00;18.00;99.90
51839;DHT22;37886;53.174;6.368;2023-09-19T10:12:41;18.30;99.90
51839;DHT22;37886;53.174;6.368;2023-09-19T10:15:08;18.60;99.90
51839;DHT22;37886;53.174;6.368;2023-09-19T10:17:37;18.70;99.90
51839;DHT22;37886;53.174;6.368;2023-09-19T10:20:03;18.80;99.90
51839;DHT22;37886;53.174;6.368;2023-09-19T10:22:43;18.90;99.90
51839;DHT22;37886;53.174;6.368;2023-09-19T10:25:12;19.10;99.90
51839;DHT22;37886;53.174;6.368;2023-09-19T10:27:39;19.40;99.90
51839;DHT22;37886;53.174;6.368;2023-09-19T10:30:06;19.20;99.90
51839;DHT22;37886;53.174;6.368;2023-09-19T10:32:35;19.00;99.90
51839;DHT22;37886;53.174;6.368;2023-09-19T10:35:02;19.00;99.90
51839;DHT22;37886;53.174;6.368;2023-09-19T10:37:31;18.90;99.90
51839;DHT22;37886;53.174;6.368;2023-09-19T10:39:58;18.80;99.90
51839;DHT22;37886;53.174;6.368;2023-09-19T10:42:25;19.00;99.90
51839;DHT22;37886;53.174;6.368;2023-09-19T10:44:55;18.90;99.90
51839;DHT22;37886;53.174;6.368;2023-09-19T10:47:26;19.00;99.90
51839;DHT22;37886;53.174;6.368;2023-09-19T10:49:51;18.80;99.90
51839;DHT22;37886;53.174;6.368;2023-09-19T10:52:21;18.40;99.90
51839;DHT22;37886;53.174;6.368;2023-09-19T10:54:51;18.30;99.90
51839;DHT22;37886;53.174;6.368;2023-09-19T10:57:24;18.30;99.90
51839;DHT22;37886;53.174;6.368;2023-09-19T11:00:08;18.30;99.90
51839;DHT22;37886;53.174;6.368;2023-09-19T11:03:24;18.10;99.90
51839;DHT22;37886;53.174;6.368;2023-09-19T11:08:56;17.80;99.90
51839;DHT22;37886;53.174;6.368;2023-09-19T11:11:49;18.10;99.90
51839;DHT22;37886;53.174;6.368;2023-09-19T11:22:18;18.20;99.90
51839;DHT22;37886;53.174;6.368;2023-09-19T11:24:45;18.10;99.90
51839;DHT22;37886;53.174;6.368;2023-09-19T11:27:15;18.20;99.90
51839;DHT22;37886;53.174;6.368;2023-09-19T11:29:43;18.20;99.90
51839;DHT22;37886;53.174;6.368;2023-09-19T11:32:09;18.50;99.90
51839;DHT22;37886;53.174;6.368;2023-09-19T11:34:42;19.20;99.90
51839;DHT22;37886;53.174;6.368;2023-09-19T11:39:37;19.20;99.90
51839;DHT22;37886;53.174;6.368;2023-09-19T11:42:45;19.20;99.90
51839;DHT22;37886;53.174;6.368;2023-09-19T11:48:18;19.40;99.90
51839;DHT22;37886;53.174;6.368;2023-09-19T11:50:44;19.10;99.90
51839;DHT22;37886;53.174;6.368;2023-09-19T11:53:12;18.90;99.90
51839;DHT22;37886;53.174;6.368;2023-09-19T11:55:44;18.80;99.90
51839;DHT22;37886;53.174;6.368;2023-09-19T11:58:12;18.70;99.90
51839;DHT22;37886;53.174;6.368;2023-09-19T12:00:40;18.60;99.90
51839;DHT22;37886;53.174;6.368;2023-09-19T12:03:11;18.50;99.90
51839;DHT22;37886;53.174;6.368;2023-09-19T12:05:37;18.70;99.90
51839;DHT22;37886;53.174;6.368;2023-09-19T12:08:07;18.70;99.90
51839;DHT22;37886;53.174;6.368;2023-09-19T12:10:54;18.60;99.90
51839;DHT22;37886;53.174;6.368;2023-09-19T12:13:23;18.70;99.90
51839;DHT22;37886;53.174;6.368;2023-09-19T12:15:49;18.60;99.90
51839;DHT22;37886;53.174;6.368;2023-09-19T12:18:31;18.40;99.90
51839;DHT22;37886;53.174;6.368;2023-09-19T12:20:57;18.30;99.90
51839;DHT22;37886;53.174;6.368;2023-09-19T12:23:30;18.30;99.90
51839;DHT22;37886;53.174;6.368;2023-09-19T12:25:56;18.20;99.90
51839;DHT22;37886;53.174;6.368;2023-09-19T12:28:26;17.90;99.90
51839;DHT22;37886;53.174;6.368;2023-09-19T12:30:53;17.70;99.90
51839;DHT22;37886;53.174;6.368;2023-09-19T12:33:21;17.50;99.90
51839;DHT22;37886;53.174;6.368;2023-09-19T12:35:50;17.60;99.90
51839;DHT22;37886;53.174;6.368;2023-09-19T12:38:25;17.90;99.90
51839;DHT22;37886;53.174;6.368;2023-09-19T12:40:55;18.00;99.90
51839;DHT22;37886;53.174;6.368;2023-09-19T12:43:22;18.10;99.90
51839;DHT22;37886;53.174;6.368;2023-09-19T12:45:48;18.20;99.90
51839;DHT22;37886;53.174;6.368;2023-09-19T12:48:25;18.30;99.90
51839;DHT22;37886;53.174;6.368;2023-09-19T12:53:34;18.40;99.90
51839;DHT22;37886;53.174;6.368;2023-09-19T12:56:03;18.40;99.90
51839;DHT22;37886;53.174;6.368;2023-09-19T12:58:34;18.50;99.90
51839;DHT22;37886;53.174;6.368;2023-09-19T13:01:00;18.40;99.90
51839;DHT22;37886;53.174;6.368;2023-09-19T13:03:30;18.20;99.90
51839;DHT22;37886;53.174;6.368;2023-09-19T13:06:02;18.30;99.90
51839;DHT22;37886;53.174;6.368;2023-09-19T13:08:37;18.30;99.90
51839;DHT22;37886;53.174;6.368;2023-09-19T13:13:33;18.50;99.90
51839;DHT22;37886;53.174;6.368;2023-09-19T13:16:00;18.50;99.90
51839;DHT22;37886;53.174;6.368;2023-09-19T13:18:27;18.40;99.90
51839;DHT22;37886;53.174;6.368;2023-09-19T13:21:08;18.20;99.90
51839;DHT22;37886;53.174;6.368;2023-09-19T13:23:38;17.80;99.90
51839;DHT22;37886;53.174;6.368;2023-09-19T13:26:03;17.70;99.90
51839;DHT22;37886;53.174;6.368;2023-09-19T13:28:33;17.60;99.90
51839;DHT22;37886;53.174;6.368;2023-09-19T13:30:59;17.60;99.90
51839;DHT22;37886;53.174;6.368;2023-09-19T13:33:25;17.60;99.90
51839;DHT22;37886;53.174;6.368;2023-09-19T13:35:51;17.80;99.90
51839;DHT22;37886;53.174;6.368;2023-09-19T13:38:18;17.90;99.90
51839;DHT22;37886;53.174;6.368;2023-09-19T13:40:47;18.00;99.90
51839;DHT22;37886;53.174;6.368;2023-09-19T13:43:14;18.20;99.90
51839;DHT22;37886;53.174;6.368;2023-09-19T13:45:40;18.40;99.90
51839;DHT22;37886;53.174;6.368;2023-09-19T13:48:09;18.40;99.90
51839;DHT22;37886;53.174;6.368;2023-09-19T13:50:37;18.50;99.90
51839;DHT22;37886;53.174;6.368;2023-09-19T13:53:08;18.70;99.90
51839;DHT22;37886;53.174;6.368;2023-09-19T13:55:33;19.00;99.90
51839;DHT22;37886;53.174;6.368;2023-09-19T13:57:59;19.20;99.90
51839;DHT22;37886;53.174;6.368;2023-09-19T14:00:25;19.00;99.90
51839;DHT22;37886;53.174;6.368;2023-09-19T14:02:51;18.80;99.90
51839;DHT22;37886;53.174;6.368;2023-09-19T14:05:17;18.60;99.90
51839;DHT22;37886;53.174;6.368;2023-09-19T14:07:44;18.50;99.90
51839;DHT22;37886;53.174;6.368;2023-09-19T14:10:11;18.60;99.90
51839;DHT22;37886;53.174;6.368;2023-09-19T14:12:40;18.60;99.90
51839;DHT22;37886;53.174;6.368;2023-09-19T14:15:07;18.70;99.90
51839;DHT22;37886;53.174;6.368;2023-09-19T14:17:33;18.70;99.90
51839;DHT22;37886;53.174;6.368;2023-09-19T14:19:59;18.60;99.90
51839;DHT22;37886;53.174;6.368;2023-09-19T14:22:25;18.60;99.90
51839;DHT22;37886;53.174;6.368;2023-09-19T14:24:51;18.60;99.90
51839;DHT22;37886;53.174;6.368;2023-09-19T14:27:18;18.60;99.90
51839;DHT22;37886;53.174;6.368;2023-09-19T14:29:43;18.60;99.90
51839;DHT22;37886;53.174;6.368;2023-09-19T14:32:09;18.50;99.90
51839;DHT22;37886;53.174;6.368;2023-09-19T14:34:35;18.50;99.90
51839;DHT22;37886;53.174;6.368;2023-09-19T14:37:07;18.50;99.90
51839;DHT22;37886;53.174;6.368;2023-09-19T14:39:33;18.50;99.90
51839;DHT22;37886;53.174;6.368;2023-09-19T14:41:59;18.50;99.90
51839;DHT22;37886;53.174;6.368;2023-09-19T14:44:25;18.40;99.90
51839;DHT22;37886;53.174;6.368;2023-09-19T14:46:50;18.20;99.90
51839;DHT22;37886;53.174;6.368;2023-09-19T14:49:16;18.00;99.90
51839;DHT22;37886;53.174;6.368;2023-09-19T14:51:42;17.90;99.90
51839;DHT22;37886;53.174;6.368;2023-09-19T14:54:13;17.90;99.90
51839;DHT22;37886;53.174;6.368;2023-09-19T14:56:38;17.90;99.90
51839;DHT22;37886;53.174;6.368;2023-09-19T14:59:05;18.00;99.90
51839;DHT22;37886;53.174;6.368;2023-09-19T15:01:32;17.90;99.90
51839;DHT22;37886;53.174;6.368;2023-09-19T15:03:58;17.80;99.90
51839;DHT22;37886;53.174;6.368;2023-09-19T15:06:23;17.70;99.90
51839;DHT22;37886;53.174;6.368;2023-09-19T15:08:49;17.70;99.90
51839;DHT22;37886;53.174;6.368;2023-09-19T15:11:16;17.70;99.90
51839;DHT22;37886;53.174;6.368;2023-09-19T15:13:44;17.70;99.90
51839;DHT22;37886;53.174;6.368;2023-09-19T15:16:10;17.70;99.90
51839;DHT22;37886;53.174;6.368;2023-09-19T15:18:37;17.70;99.90
51839;DHT22;37886;53.174;6.368;2023-09-19T15:21:04;17.70;99.90
51839;DHT22;37886;53.174;6.368;2023-09-19T15:23:30;17.50;99.90
51839;DHT22;37886;53.174;6.368;2023-09-19T15:25:57;17.40;99.90
51839;DHT22;37886;53.174;6.368;2023-09-19T15:28:23;17.20;99.90
51839;DHT22;37886;53.174;6.368;2023-09-19T15:30:50;17.10;99.90
51839;DHT22;37886;53.174;6.368;2023-09-19T15:33:15;17.00;99.90
51839;DHT22;37886;53.174;6.368;2023-09-19T15:35:41;16.90;99.90
51839;DHT22;37886;53.174;6.368;2023-09-19T15:38:07;16.80;99.90
51839;DHT22;37886;53.174;6.368;2023-09-19T15:40:33;16.70;99.90
51839;DHT22;37886;53.174;6.368;2023-09-19T15:42:59;16.70;99.90
51839;DHT22;37886;53.174;6.368;2023-09-19T15:45:25;16.70;99.90
51839;DHT22;37886;53.174;6.368;2023-09-19T15:47:51;16.70;99.90
51839;DHT22;37886;53.174;6.368;2023-09-19T15:50:17;16.70;99.90
51839;DHT22;37886;53.174;6.368;2023-09-19T15:52:43;16.80;99.90
51839;DHT22;37886;53.174;6.368;2023-09-19T15:55:08;16.70;99.90
51839;DHT22;37886;53.174;6.368;2023-09-19T15:57:38;16.70;99.90
51839;DHT22;37886;53.174;6.368;2023-09-19T16:00:04;16.80;99.90
51839;DHT22;37886;53.174;6.368;2023-09-19T16:02:38;16.80;99.90
51839;DHT22;37886;53.174;6.368;2023-09-19T16:05:04;16.90;99.90
51839;DHT22;37886;53.174;6.368;2023-09-19T16:07:33;16.90;99.90
51839;DHT22;37886;53.174;6.368;2023-09-19T16:09:59;16.90;99.90
51839;DHT22;37886;53.174;6.368;2023-09-19T16:12:26;16.90;99.90
51839;DHT22;37886;53.174;6.368;2023-09-19T16:14:52;16.90;99.90
51839;DHT22;37886;53.174;6.368;2023-09-19T16:17:17;16.80;99.90
51839;DHT22;37886;53.174;6.368;2023-09-19T16:19:43;16.80;99.90
51839;DHT22;37886;53.174;6.368;2023-09-19T16:22:10;16.70;99.90
51839;DHT22;37886;53.174;6.368;2023-09-19T16:24:35;16.70;99.90
51839;DHT22;37886;53.174;6.368;2023-09-19T16:27:01;16.70;99.90